createdAt,value
2022-08-29T00:04:52.353Z,101488.50
2022-08-29T00:09:56.707Z,101489.53
2022-08-29T00:15:00.771Z,101484.44
2022-08-29T00:20:05.748Z,101485.47
2022-08-29T00:25:13.278Z,101482.28
2022-08-29T00:30:16.725Z,101489.22
2022-08-29T00:35:23.623Z,101492.16
2022-08-29T00:40:31.243Z,101501.56
2022-08-29T00:45:35.042Z,101493.47
2022-08-29T00:50:42.093Z,101497.88
2022-08-29T00:55:50.676Z,101495.13
2022-08-29T01:00:55.735Z,101506.16
2022-08-29T01:05:58.607Z,101501.09
2022-08-29T01:11:22.155Z,101501.00
2022-08-29T01:16:29.031Z,101505.75
2022-08-29T01:21:45.739Z,101501.56
2022-08-29T01:26:49.990Z,101499.13
2022-08-29T01:31:57.416Z,101495.56
2022-08-29T01:37:02.741Z,101501.09
2022-08-29T01:42:10.019Z,101509.78
2022-08-29T01:47:12.835Z,101511.41
2022-08-29T01:52:18.039Z,101508.97
2022-08-29T01:57:22.341Z,101510.66
2022-08-29T02:02:28.715Z,101509.44
2022-08-29T02:07:31.648Z,101508.59
2022-08-29T02:12:36.210Z,101505.75
2022-08-29T02:17:39.398Z,101499.78
2022-08-29T02:22:42.811Z,101501.94
2022-08-29T02:27:47.002Z,101497.56
2022-08-29T02:32:50.235Z,101495.13
2022-08-29T02:37:53.653Z,101495.75
2022-08-29T02:42:57.859Z,101500.19
2022-08-29T02:48:01.019Z,101499.38
2022-08-29T02:53:03.790Z,101498.56
2022-08-29T02:58:08.856Z,101503.44
2022-08-29T03:03:12.036Z,101502.25
2022-08-29T03:08:15.490Z,101503.53
2022-08-29T03:13:20.278Z,101504.81
2022-08-29T03:18:23.377Z,101508.00
2022-08-29T03:23:26.400Z,101495.06
2022-08-29T03:28:30.631Z,101501.72
2022-08-29T03:33:33.586Z,101494.44
2022-08-29T03:38:38.005Z,101500.09
2022-08-29T03:43:42.200Z,101496.31
2022-08-29T03:48:45.162Z,101498.44
2022-08-29T03:53:48.334Z,101499.00
2022-08-29T03:58:53.578Z,101498.13
2022-08-29T04:03:57.845Z,101505.78
2022-08-29T04:09:01.699Z,101504.53
2022-08-29T04:14:05.948Z,101510.09
2022-08-29T04:19:08.920Z,101511.00
2022-08-29T04:24:12.397Z,101532.00
2022-08-29T04:29:16.666Z,101529.34
2022-08-29T04:34:20.787Z,101534.31
2022-08-29T04:39:23.755Z,101533.72
2022-08-29T04:44:27.996Z,101544.50
2022-08-29T04:49:30.825Z,101544.94
2022-08-29T04:54:33.692Z,101551.97
2022-08-29T04:59:38.027Z,101556.88
2022-08-29T05:04:40.884Z,101562.28
2022-08-29T05:09:43.756Z,101573.06
2022-08-29T05:14:47.984Z,101568.19
2022-08-29T05:19:50.945Z,101565.78
2022-08-29T05:24:56.323Z,101571.31
2022-08-29T05:30:00.771Z,101578.34
2022-08-29T05:35:04.078Z,101586.97
2022-08-29T05:40:08.026Z,101592.63
2022-08-29T05:45:13.162Z,101594.72
2022-08-29T05:50:17.050Z,101603.88
2022-08-29T05:55:20.052Z,101596.50
2022-08-29T06:00:24.490Z,101602.19
2022-08-29T06:05:27.309Z,101602.06
2022-08-29T06:10:30.205Z,101601.25
2022-08-29T06:15:34.437Z,101601.97
2022-08-29T06:20:38.390Z,101606.22
2022-08-29T06:25:41.234Z,101607.47
2022-08-29T06:30:45.508Z,101610.44
2022-08-29T06:35:48.625Z,101621.25
2022-08-29T06:40:52.756Z,101632.66
2022-08-29T06:45:57.292Z,101621.78
2022-08-29T06:51:02.454Z,101619.88
2022-08-29T06:56:06.613Z,101625.53
2022-08-29T07:01:18.546Z,101623.28
2022-08-29T07:06:21.946Z,101625.53
2022-08-29T07:11:25.854Z,101623.50
2022-08-29T07:16:31.501Z,101619.34
2022-08-29T07:21:34.696Z,101629.94
2022-08-29T07:26:42.001Z,101624.19
2022-08-29T07:31:47.366Z,101632.25
2022-08-29T07:36:50.236Z,101626.53
2022-08-29T07:41:53.087Z,101629.31
2022-08-29T07:46:58.708Z,101624.13
2022-08-29T07:52:01.623Z,101621.47
2022-08-29T07:57:04.518Z,101638.81
2022-08-29T08:02:08.834Z,101646.00
2022-08-29T08:07:13.957Z,101651.47
2022-08-29T08:12:17.773Z,101646.44
2022-08-29T08:17:22.118Z,101653.97
2022-08-29T08:22:24.954Z,101654.91
2022-08-29T08:27:27.914Z,101652.03
2022-08-29T08:32:32.490Z,101657.06
2022-08-29T08:37:36.572Z,101659.69
2022-08-29T08:42:43.233Z,101666.78
2022-08-29T08:47:51.315Z,101669.66
2022-08-29T08:52:59.256Z,101666.44
2022-08-29T08:58:06.841Z,101669.41
2022-08-29T09:03:23.410Z,101655.16
2022-08-29T09:08:37.870Z,101660.97
2022-08-29T09:13:52.502Z,101668.44
2022-08-29T09:19:01.838Z,101660.34
2022-08-29T09:24:09.995Z,101674.06
2022-08-29T09:29:13.930Z,101674.53
2022-08-29T09:34:57.023Z,101669.00
2022-08-29T09:40:02.661Z,101671.75
2022-08-29T09:45:17.655Z,101674.28
2022-08-29T09:50:25.546Z,101672.59
2022-08-29T09:55:35.029Z,101680.50
2022-08-29T10:00:40.272Z,101679.09
2022-08-29T10:05:46.882Z,101680.28
2022-08-29T10:10:54.611Z,101689.00
2022-08-29T10:16:02.708Z,101689.38
2022-08-29T10:21:20.345Z,101681.16
2022-08-29T10:26:43.008Z,101683.59
2022-08-29T10:31:53.671Z,101688.94
2022-08-29T10:37:06.512Z,101688.06
2022-08-29T10:42:15.685Z,101696.31
2022-08-29T10:47:29.140Z,101701.22
2022-08-29T10:52:39.298Z,101705.28
2022-08-29T10:57:50.849Z,101703.03
2022-08-29T11:03:05.669Z,101698.66
2022-08-29T11:08:16.311Z,101701.88
2022-08-29T11:13:24.390Z,101704.44
2022-08-29T11:18:29.973Z,101703.16
2022-08-29T11:23:39.469Z,101702.03
2022-08-29T11:28:51.710Z,101704.47
2022-08-29T11:34:03.100Z,101709.75
2022-08-29T11:39:42.675Z,101708.91
2022-08-29T11:44:49.211Z,101709.59
2022-08-29T11:49:53.305Z,101713.16
2022-08-29T11:55:24.196Z,101701.72
2022-08-29T12:00:51.198Z,101717.13
2022-08-29T12:06:00.500Z,101717.28
2022-08-29T12:11:05.786Z,101716.84
2022-08-29T12:16:10.553Z,101721.00
2022-08-29T12:21:33.989Z,101728.84
2022-08-29T12:26:45.068Z,101726.34
2022-08-29T12:32:22.947Z,101730.84
2022-08-29T12:37:45.198Z,101727.34
2022-08-29T12:43:04.509Z,101731.78
2022-08-29T12:48:12.408Z,101726.81
2022-08-29T12:53:19.141Z,101729.06
2022-08-29T12:58:39.418Z,101748.72
2022-08-29T13:03:42.229Z,101737.25
2022-08-29T13:08:49.718Z,101730.38
2022-08-29T13:14:05.485Z,101747.84
2022-08-29T13:19:22.345Z,101734.38
2022-08-29T13:24:25.236Z,101735.81
2022-08-29T13:29:35.986Z,101737.94
2022-08-29T13:34:38.947Z,101736.28
2022-08-29T13:39:47.224Z,101744.31
2022-08-29T13:45:08.867Z,101737.88
2022-08-29T13:50:13.291Z,101724.97
2022-08-29T13:55:16.269Z,101719.53
2022-08-29T14:00:32.026Z,101716.91
2022-08-29T14:05:38.298Z,101706.66
2022-08-29T14:10:41.695Z,101714.13
2022-08-29T14:15:46.188Z,101706.41
2022-08-29T14:20:49.059Z,101706.63
2022-08-29T14:25:52.045Z,101708.78
2022-08-29T14:30:56.338Z,101702.16
2022-08-29T14:35:59.291Z,101693.13
2022-08-29T14:41:03.927Z,101707.50
2022-08-29T14:46:08.404Z,101691.69
2022-08-29T14:51:11.250Z,101702.63
2022-08-29T14:56:44.295Z,101699.34
2022-08-29T15:01:38.833Z,101706.59
2022-08-29T15:06:41.845Z,101708.78
2022-08-29T15:11:44.634Z,101708.81
2022-08-29T15:16:48.802Z,101709.97
2022-08-29T15:21:51.669Z,101700.53
2022-08-29T15:26:54.651Z,101704.41
2022-08-29T15:31:58.888Z,101700.63
2022-08-29T15:37:02.824Z,101708.75
2022-08-29T15:42:11.109Z,101714.81
2022-08-29T15:47:15.318Z,101721.38
2022-08-29T15:52:18.844Z,101712.41
2022-08-29T15:57:22.109Z,101705.72
2022-08-29T16:02:26.949Z,101716.50
2022-08-29T16:07:29.906Z,101714.28
2022-08-29T16:12:32.721Z,101727.38
2022-08-29T16:17:37.178Z,101720.03
2022-08-29T16:22:41.810Z,101718.75
2022-08-29T16:27:44.947Z,101722.66
2022-08-29T16:32:50.454Z,101716.88
2022-08-29T16:38:02.184Z,101721.38
2022-08-29T16:43:06.747Z,101728.06
2022-08-29T16:48:15.802Z,101720.22
2022-08-29T16:53:21.326Z,101720.97
2022-08-29T16:58:41.458Z,101720.50
2022-08-29T17:03:46.327Z,101722.03
2022-08-29T17:08:48.111Z,101720.16
2022-08-29T17:13:53.097Z,101725.66
2022-08-29T17:18:57.598Z,101712.59
2022-08-29T17:24:02.415Z,101722.50
2022-08-29T17:29:06.291Z,101716.84
2022-08-29T17:34:11.928Z,101719.13
2022-08-29T17:39:14.716Z,101725.72
2022-08-29T17:44:17.625Z,101735.75
2022-08-29T17:49:22.007Z,101725.94
2022-08-29T17:54:27.588Z,101734.00
2022-08-29T17:59:33.725Z,101734.47
2022-08-29T18:04:38.217Z,101743.44
2022-08-29T18:09:41.074Z,101736.94
2022-08-29T18:14:43.915Z,101746.88
2022-08-29T18:19:48.163Z,101753.19
2022-08-29T18:24:53.133Z,101749.53
2022-08-29T18:29:57.113Z,101750.19
2022-08-29T18:35:02.580Z,101753.13
2022-08-29T18:40:07.867Z,101756.09
2022-08-29T18:45:12.017Z,101776.06
2022-08-29T18:50:33.809Z,101771.72
2022-08-29T18:55:36.705Z,101789.41
2022-08-29T19:00:39.710Z,101790.47
2022-08-29T19:05:48.455Z,101789.56
2022-08-29T19:10:53.830Z,101789.66
2022-08-29T19:15:59.479Z,101791.03
2022-08-29T19:21:06.233Z,101789.72
2022-08-29T19:26:11.565Z,101785.63
2022-08-29T19:31:16.408Z,101774.91
2022-08-29T19:36:23.390Z,101775.91
2022-08-29T19:41:27.443Z,101783.75
2022-08-29T19:46:32.349Z,101779.00
2022-08-29T19:51:38.145Z,101780.38
2022-08-29T19:56:41.046Z,101775.63
2022-08-29T20:01:49.885Z,101775.53
2022-08-29T20:06:57.285Z,101777.75
2022-08-29T20:12:03.078Z,101786.75
2022-08-29T20:17:09.454Z,101781.91
2022-08-29T20:22:14.256Z,101784.25
2022-08-29T20:27:19.882Z,101786.34
2022-08-29T20:32:22.724Z,101787.47
2022-08-29T20:37:28.328Z,101792.72
2022-08-29T20:42:31.360Z,101801.91
2022-08-29T20:47:34.206Z,101808.59
2022-08-29T20:52:39.754Z,101803.81
2022-08-29T20:57:42.577Z,101810.22
2022-08-29T21:03:02.683Z,101802.44
2022-08-29T21:08:07.736Z,101797.25
2022-08-29T21:13:10.655Z,101796.31
2022-08-29T21:18:20.209Z,101804.97
2022-08-29T21:23:25.733Z,101809.38
2022-08-29T21:28:32.778Z,101828.97
2022-08-29T21:33:37.818Z,101825.47
2022-08-29T21:38:42.148Z,101820.84
2022-08-29T21:43:45.059Z,101827.53
2022-08-29T21:48:52.507Z,101831.22
2022-08-29T21:54:00.765Z,101814.69
2022-08-29T21:59:04.216Z,101815.69
2022-08-29T22:04:09.072Z,101812.00
2022-08-29T22:09:15.411Z,101812.47
2022-08-29T22:14:18.870Z,101817.06
2022-08-29T22:19:21.688Z,101815.91
2022-08-29T22:24:25.802Z,101807.41
2022-08-29T22:29:28.648Z,101810.91
2022-08-29T22:34:31.836Z,101807.50
2022-08-29T22:39:36.054Z,101809.66
2022-08-29T22:45:02.310Z,101812.06
2022-08-29T22:50:02.274Z,101809.88
2022-08-29T22:55:07.886Z,101811.09
2022-08-29T23:00:13.039Z,101818.09
2022-08-29T23:05:16.599Z,101828.47
2022-08-29T23:10:22.047Z,101819.91
2022-08-29T23:15:24.999Z,101823.91
2022-08-29T23:20:29.589Z,101817.97
2022-08-29T23:25:33.904Z,101818.63
2022-08-29T23:30:36.708Z,101816.16
2022-08-29T23:35:39.528Z,101821.81
2022-08-29T23:40:43.871Z,101826.69
2022-08-29T23:45:46.681Z,101832.38
2022-08-29T23:50:49.467Z,101832.72
2022-08-29T23:55:54.357Z,101820.03
